createdAt,value
2018-12-25T00:00:14.044Z,98830.82
2018-12-25T00:00:45.656Z,98824.46
2018-12-25T00:01:17.267Z,98826.60
2018-12-25T00:01:48.875Z,98831.73
2018-12-25T00:02:20.469Z,98826.17
2018-12-25T00:02:52.065Z,98824.45
2018-12-25T00:03:23.644Z,98832.58
2018-12-25T00:03:55.260Z,98834.70
2018-12-25T00:04:26.856Z,98826.55
2018-12-25T00:04:58.474Z,98832.05
2018-12-25T00:05:30.066Z,98828.13
2018-12-25T00:06:01.665Z,98831.40
2018-12-25T00:06:33.274Z,98840.21
2018-12-25T00:07:04.870Z,98844.23
2018-12-25T00:07:36.473Z,98832.53
2018-12-25T00:08:08.079Z,98842.43
2018-12-25T00:08:39.657Z,98835.68
2018-12-25T00:09:11.250Z,98841.61
2018-12-25T00:09:42.885Z,98841.11
2018-12-25T00:10:14.524Z,98844.48
2018-12-25T00:10:46.118Z,98843.63
2018-12-25T00:11:17.714Z,98852.16
2018-12-25T00:11:49.309Z,98842.81
2018-12-25T00:12:20.912Z,98851.81
2018-12-25T00:12:52.523Z,98839.48
2018-12-25T00:13:24.135Z,98838.20
2018-12-25T00:13:55.729Z,98847.20
2018-12-25T00:14:27.348Z,98831.88
2018-12-25T00:14:58.983Z,98845.96
2018-12-25T00:15:30.591Z,98835.33
2018-12-25T00:16:02.203Z,98840.02
2018-12-25T00:16:33.795Z,98838.78
2018-12-25T00:17:05.386Z,98843.48
2018-12-25T00:17:36.978Z,98843.94
2018-12-25T00:18:08.573Z,98852.90
2018-12-25T00:18:40.173Z,98858.48
2018-12-25T00:19:11.758Z,98851.23
2018-12-25T00:19:43.349Z,98849.95
2018-12-25T00:20:14.970Z,98841.92
2018-12-25T00:20:46.567Z,98846.61
2018-12-25T00:21:18.167Z,98846.62
2018-12-25T00:21:49.748Z,98847.50
2018-12-25T00:22:21.350Z,98848.78
2018-12-25T00:22:53.106Z,98848.78
2018-12-25T00:23:24.712Z,98847.54
2018-12-25T00:23:56.313Z,98852.23
2018-12-25T00:24:27.925Z,98848.43
2018-12-25T00:24:59.585Z,98852.27
2018-12-25T00:25:31.181Z,98846.30
2018-12-25T00:26:02.788Z,98848.04
2018-12-25T00:26:34.374Z,98849.31
2018-12-25T00:27:06.017Z,98851.95
2018-12-25T00:27:37.616Z,98856.17
2018-12-25T00:28:09.201Z,98856.21
2018-12-25T00:28:40.798Z,98851.52
2018-12-25T00:29:12.394Z,98849.85
2018-12-25T00:29:43.990Z,98852.84
2018-12-25T00:30:15.631Z,98856.28
2018-12-25T00:30:47.225Z,98859.69
2018-12-25T00:31:18.937Z,98855.86
2018-12-25T00:31:50.520Z,98855.43
2018-12-25T00:32:22.100Z,98854.58
2018-12-25T00:32:53.708Z,98860.97
2018-12-25T00:33:25.319Z,98856.31
2018-12-25T00:33:56.917Z,98862.71
2018-12-25T00:34:28.874Z,98855.50
2018-12-25T00:35:00.801Z,98856.81
2018-12-25T00:35:32.423Z,98851.27
2018-12-25T00:36:04.032Z,98844.88
2018-12-25T00:36:35.640Z,98852.97
2018-12-25T00:37:07.299Z,98855.56
2018-12-25T00:37:38.899Z,98851.73
2018-12-25T00:38:10.498Z,98854.31
2018-12-25T00:38:42.097Z,98864.97
2018-12-25T00:39:13.693Z,98846.64
2018-12-25T00:39:45.290Z,98859.00
2018-12-25T00:40:16.900Z,98849.66
2018-12-25T00:40:48.508Z,98845.83
2018-12-25T00:41:20.115Z,98846.67
2018-12-25T00:41:51.700Z,98851.80
2018-12-25T00:42:23.293Z,98857.77
2018-12-25T00:42:54.886Z,98854.34
2018-12-25T00:43:26.497Z,98853.53
2018-12-25T00:43:58.144Z,98843.73
2018-12-25T00:44:29.738Z,98851.40
2018-12-25T00:45:01.345Z,98854.81
2018-12-25T00:45:32.975Z,98850.98
2018-12-25T00:46:04.569Z,98847.98
2018-12-25T00:46:36.166Z,98847.11
2018-12-25T00:47:07.780Z,98848.81
2018-12-25T00:47:39.439Z,98846.67
2018-12-25T00:48:11.039Z,98850.48
2018-12-25T00:48:42.634Z,98848.78
2018-12-25T00:49:14.901Z,98847.89
2018-12-25T00:49:45.882Z,98846.61
2018-12-25T00:50:17.795Z,98846.16
2018-12-25T00:50:49.393Z,98847.40
2018-12-25T00:51:20.989Z,98853.33
2018-12-25T00:51:52.591Z,98855.00
2018-12-25T00:52:24.204Z,98852.48
2018-12-25T00:52:55.797Z,98858.37
2018-12-25T00:53:27.412Z,98857.09
2018-12-25T00:53:59.013Z,98854.94
2018-12-25T00:54:30.605Z,98846.41
2018-12-25T00:55:02.197Z,98825.27
2018-12-25T00:55:33.827Z,98860.91
2018-12-25T00:56:05.422Z,98859.20
2018-12-25T00:56:37.027Z,98855.33
2018-12-25T00:57:08.626Z,98851.52
2018-12-25T00:57:40.236Z,98856.17
2018-12-25T00:58:11.839Z,98854.93
2018-12-25T00:58:43.444Z,98855.36
2018-12-25T00:59:15.041Z,98859.23
2018-12-25T00:59:46.633Z,98865.20
2018-12-25T01:00:18.244Z,98857.14
2018-12-25T01:00:49.869Z,98859.27
2018-12-25T01:01:21.483Z,98854.19
2018-12-25T01:01:53.092Z,98856.74
2018-12-25T01:02:24.689Z,98861.89
2018-12-25T01:02:56.290Z,98860.19
2018-12-25T01:03:28.331Z,98854.68
2018-12-25T01:03:59.978Z,98859.37
2018-12-25T01:04:31.873Z,98861.53
2018-12-25T01:05:04.113Z,98863.23
2018-12-25T01:05:36.617Z,98871.37
2018-12-25T01:06:08.154Z,98864.58
2018-12-25T01:06:39.754Z,98861.17
2018-12-25T01:07:11.351Z,98869.69
2018-12-25T01:07:42.964Z,98862.02
2018-12-25T01:08:14.562Z,98858.61
2018-12-25T01:08:46.153Z,98862.88
2018-12-25T01:09:17.749Z,98860.74
2018-12-25T01:09:49.346Z,98859.86
2018-12-25T01:10:20.952Z,98859.44
2018-12-25T01:10:52.574Z,98852.19
2018-12-25T01:11:24.171Z,98854.71
2018-12-25T01:11:55.782Z,98828.88
2018-12-25T01:12:27.367Z,98851.69
2018-12-25T01:12:58.962Z,98860.64
2018-12-25T01:13:30.553Z,98861.47
2018-12-25T01:14:02.161Z,98862.32
2018-12-25T01:14:33.771Z,98842.77
2018-12-25T01:15:05.380Z,98863.14
2018-12-25T01:15:37.480Z,98855.86
2018-12-25T01:16:09.101Z,98854.58
2018-12-25T01:16:40.694Z,98865.23
2018-12-25T01:17:12.286Z,98864.34
2018-12-25T01:17:43.896Z,98864.31
2018-12-25T01:18:15.497Z,98873.23
2018-12-25T01:18:47.106Z,98870.67
2018-12-25T01:19:23.325Z,98864.28
2018-12-25T01:19:50.333Z,98865.98
2018-12-25T01:20:21.925Z,98865.52
2018-12-25T01:20:53.555Z,98871.06
2018-12-25T01:21:25.172Z,98867.23
2018-12-25T01:21:56.780Z,98867.66
2018-12-25T01:22:28.377Z,98864.24
2018-12-25T01:22:59.988Z,98871.45
2018-12-25T01:23:31.586Z,98867.63
2018-12-25T01:24:03.198Z,98867.63
2018-12-25T01:24:34.812Z,98868.90
2018-12-25T01:25:06.396Z,98870.61
2018-12-25T01:25:38.006Z,98866.77
2018-12-25T01:26:09.643Z,98865.95
2018-12-25T01:26:41.242Z,98868.08
2018-12-25T01:27:12.838Z,98866.37
2018-12-25T01:27:44.448Z,98866.80
2018-12-25T01:28:16.039Z,98861.26
2018-12-25T01:28:47.652Z,98865.09
2018-12-25T01:29:19.245Z,98861.69
2018-12-25T01:29:50.859Z,98858.70
2018-12-25T01:30:22.444Z,98864.28
2018-12-25T01:30:54.076Z,98861.72
2018-12-25T01:31:25.669Z,98857.03
2018-12-25T01:31:57.280Z,98860.44
2018-12-25T01:32:28.868Z,98859.63
2018-12-25T01:33:00.473Z,98854.05
2018-12-25T01:33:32.070Z,98857.88
2018-12-25T01:34:03.670Z,98862.58
2018-12-25T01:34:35.394Z,98856.17
2018-12-25T01:35:06.996Z,98863.85
2018-12-25T01:35:38.592Z,98855.36
2018-12-25T01:36:10.233Z,98853.66
2018-12-25T01:36:41.834Z,98853.66
2018-12-25T01:37:13.420Z,98850.24
2018-12-25T01:37:45.030Z,98849.42
2018-12-25T01:38:16.640Z,98846.02
2018-12-25T01:38:48.236Z,98857.92
2018-12-25T01:39:19.835Z,98850.20
2018-12-25T01:39:51.420Z,98847.65
2018-12-25T01:40:23.019Z,98855.29
2018-12-25T01:40:54.623Z,98851.45
2018-12-25T01:41:26.212Z,98845.91
2018-12-25T01:41:57.824Z,98850.59
2018-12-25T01:42:29.424Z,98845.05
2018-12-25T01:43:01.031Z,98845.94
2018-12-25T01:43:32.616Z,98841.22
2018-12-25T01:44:04.223Z,98847.22
2018-12-25T01:44:35.818Z,98846.37
2018-12-25T01:45:07.420Z,98849.36
2018-12-25T01:45:39.019Z,98846.41
2018-12-25T01:46:10.639Z,98845.95
2018-12-25T01:46:42.243Z,98844.70
2018-12-25T01:47:13.842Z,98849.78
2018-12-25T01:47:45.451Z,98849.78
2018-12-25T01:48:17.059Z,98845.94
2018-12-25T01:48:48.667Z,98851.06
2018-12-25T01:49:20.280Z,98852.30
2018-12-25T01:49:51.878Z,98850.13
2018-12-25T01:50:23.471Z,98854.05
2018-12-25T01:50:55.066Z,98849.89
2018-12-25T01:51:26.676Z,98854.61
2018-12-25T01:51:58.270Z,98855.10
2018-12-25T01:52:29.861Z,98854.75
2018-12-25T01:53:01.464Z,98856.09
2018-12-25T01:53:33.075Z,98852.67
2018-12-25T01:54:04.679Z,98858.64
2018-12-25T01:54:36.283Z,98856.09
2018-12-25T01:55:07.892Z,98859.07
2018-12-25T01:55:39.486Z,98852.25
2018-12-25T01:56:11.102Z,98859.50
2018-12-25T01:56:42.688Z,98864.61
2018-12-25T01:57:14.292Z,98859.07
2018-12-25T01:57:45.899Z,98857.80
2018-12-25T01:58:17.508Z,98863.36
2018-12-25T01:58:49.116Z,98858.67
2018-12-25T01:59:20.719Z,98857.83
2018-12-25T01:59:52.318Z,98856.12
2018-12-25T02:00:23.923Z,98857.86
2018-12-25T02:00:55.536Z,98860.41
2018-12-25T02:01:27.148Z,98848.94
2018-12-25T02:01:58.753Z,98832.51
2018-12-25T02:02:30.353Z,98857.03
2018-12-25T02:03:01.967Z,98862.58
2018-12-25T02:03:33.615Z,98858.73
2018-12-25T02:04:05.214Z,98857.03
2018-12-25T02:04:36.824Z,98858.77
2018-12-25T02:05:08.431Z,98861.75
2018-12-25T02:05:40.040Z,98859.20
2018-12-25T02:06:11.628Z,98860.50
2018-12-25T02:06:43.249Z,98861.36
2018-12-25T02:07:14.841Z,98857.13
2018-12-25T02:07:46.459Z,98861.84
2018-12-25T02:08:18.054Z,98862.67
2018-12-25T02:08:49.664Z,98866.50
2018-12-25T02:09:21.262Z,98862.70
2018-12-25T02:09:52.843Z,98860.56
2018-12-25T02:10:24.443Z,98863.58
2018-12-25T02:10:56.052Z,98869.97
2018-12-25T02:11:27.678Z,98862.72
2018-12-25T02:11:59.270Z,98864.86
2018-12-25T02:12:30.879Z,98861.91
2018-12-25T02:13:02.479Z,98867.02
2018-12-25T02:13:34.087Z,98867.87
2018-12-25T02:14:05.686Z,98869.14
2018-12-25T02:14:37.295Z,98870.88
2018-12-25T02:15:08.898Z,98869.59
2018-12-25T02:15:40.489Z,98870.48
2018-12-25T02:16:12.195Z,98866.64
2018-12-25T02:16:43.828Z,98871.76
2018-12-25T02:17:15.411Z,98868.77
2018-12-25T02:17:47.004Z,98862.84
2018-12-25T02:18:18.598Z,98861.14
2018-12-25T02:18:50.194Z,98867.52
2018-12-25T02:19:21.790Z,98868.38
2018-12-25T02:19:53.393Z,98872.20
2018-12-25T02:20:25.000Z,98872.24
2018-12-25T02:20:56.604Z,98865.00
2018-12-25T02:21:28.244Z,98867.98
2018-12-25T02:21:59.837Z,98865.87
2018-12-25T02:22:31.439Z,98873.55
2018-12-25T02:23:03.033Z,98866.73
2018-12-25T02:23:34.644Z,98865.02
2018-12-25T02:24:06.242Z,98859.48
2018-12-25T02:24:37.824Z,98867.58
2018-12-25T02:25:09.418Z,98866.30
2018-12-25T02:25:41.004Z,98858.20
2018-12-25T02:26:12.600Z,98865.87
2018-12-25T02:26:44.219Z,98859.48
2018-12-25T02:27:15.814Z,98853.09
2018-12-25T02:27:47.421Z,98863.32
2018-12-25T02:28:19.027Z,98865.45
2018-12-25T02:28:50.625Z,98859.48
2018-12-25T02:29:22.231Z,98862.87
2018-12-25T02:29:53.835Z,98856.91
2018-12-25T02:30:25.449Z,98859.43
2018-12-25T02:30:57.056Z,98860.28
2018-12-25T02:31:28.653Z,98858.13
2018-12-25T02:32:00.270Z,98861.11
2018-12-25T02:32:31.881Z,98853.02
2018-12-25T02:33:03.517Z,98858.53
2018-12-25T02:33:35.121Z,98867.02
2018-12-25T02:34:06.720Z,98863.16
2018-12-25T02:34:38.332Z,98865.25
2018-12-25T02:35:09.930Z,98854.59
2018-12-25T02:35:41.526Z,98853.72
2018-12-25T02:36:13.146Z,98851.16
2018-12-25T02:36:44.781Z,98857.52
2018-12-25T02:37:16.360Z,98858.77
2018-12-25T02:37:47.963Z,98860.87
2018-12-25T02:38:19.558Z,98857.43
2018-12-25T02:38:51.149Z,98851.89
2018-12-25T02:39:22.757Z,98857.43
2018-12-25T02:39:54.369Z,98851.86
2018-12-25T02:40:25.983Z,98845.04
2018-12-25T02:40:57.568Z,98845.47
2018-12-25T02:41:29.162Z,98855.27
2018-12-25T02:42:00.804Z,98856.09
2018-12-25T02:42:32.388Z,98846.28
2018-12-25T02:43:03.985Z,98845.83
2018-12-25T02:43:35.578Z,98835.59
2018-12-25T02:44:07.170Z,98837.73
2018-12-25T02:44:38.768Z,98843.27
2018-12-25T02:45:10.373Z,98847.08
2018-12-25T02:45:41.963Z,98840.25
2018-12-25T02:46:13.564Z,98842.38
2018-12-25T02:46:45.182Z,98835.53
2018-12-25T02:47:16.789Z,98842.77
2018-12-25T02:47:48.396Z,98835.10
2018-12-25T02:48:20.007Z,98838.91
2018-12-25T02:48:51.606Z,98837.59
2018-12-25T02:49:23.216Z,98837.56
2018-12-25T02:49:54.826Z,98839.23
2018-12-25T02:50:26.409Z,98841.36
2018-12-25T02:50:58.002Z,98836.24
2018-12-25T02:51:29.595Z,98840.94
2018-12-25T02:52:01.214Z,98832.83
2018-12-25T02:52:32.806Z,98840.50
2018-12-25T02:53:04.410Z,98834.11
2018-12-25T02:53:35.993Z,98843.06
2018-12-25T02:54:07.586Z,98838.38
2018-12-25T02:54:39.200Z,98840.94
2018-12-25T02:55:10.795Z,98842.60
2018-12-25T02:55:42.390Z,98841.78
2018-12-25T02:56:13.982Z,98837.52
2018-12-25T02:56:45.597Z,98837.52
2018-12-25T02:57:17.209Z,98840.08
2018-12-25T02:57:48.821Z,98836.64
2018-12-25T02:58:20.433Z,98836.59
2018-12-25T02:58:52.051Z,98834.86
2018-12-25T02:59:23.646Z,98840.36
2018-12-25T02:59:55.241Z,98838.66
2018-12-25T03:00:26.856Z,98834.39
2018-12-25T03:00:58.461Z,98803.03
2018-12-25T03:01:30.073Z,98833.93
2018-12-25T03:02:01.684Z,98828.42
2018-12-25T03:02:33.291Z,98838.23
2018-12-25T03:03:04.878Z,98835.24
2018-12-25T03:03:36.623Z,98833.54
2018-12-25T03:04:08.276Z,98834.39
2018-12-25T03:04:39.891Z,98839.09
2018-12-25T03:05:11.840Z,98839.94
2018-12-25T03:05:43.428Z,98837.38
2018-12-25T03:06:15.032Z,98838.69
2018-12-25T03:06:46.652Z,98839.55
2018-12-25T03:07:18.288Z,98837.88
2018-12-25T03:07:49.893Z,98838.70
2018-12-25T03:08:21.506Z,98838.30
2018-12-25T03:08:53.120Z,98834.86
2018-12-25T03:09:24.715Z,98828.46
2018-12-25T03:09:56.310Z,98833.58
2018-12-25T03:10:27.887Z,98839.12
2018-12-25T03:10:59.486Z,98837.88
2018-12-25T03:11:31.082Z,98827.64
2018-12-25T03:12:02.677Z,98831.48
2018-12-25T03:12:34.302Z,98830.66
2018-12-25T03:13:05.897Z,98833.66
2018-12-25T03:13:37.508Z,98829.84
2018-12-25T03:14:09.113Z,98829.00
2018-12-25T03:14:40.715Z,98825.59
2018-12-25T03:15:12.319Z,98824.77
2018-12-25T03:15:43.924Z,98825.63
2018-12-25T03:16:15.537Z,98830.77
2018-12-25T03:16:47.136Z,98825.27
2018-12-25T03:17:18.769Z,98826.55
2018-12-25T03:17:50.370Z,98825.30
2018-12-25T03:18:21.980Z,98823.20
2018-12-25T03:18:53.564Z,98823.20
2018-12-25T03:19:25.177Z,98816.81
2018-12-25T03:20:00.041Z,98818.09
2018-12-25T03:20:28.430Z,98819.80
2018-12-25T03:21:00.035Z,98818.52
2018-12-25T03:21:31.645Z,98820.22
2018-12-25T03:22:03.238Z,98819.83
2018-12-25T03:22:34.858Z,98828.35
2018-12-25T03:23:06.459Z,98825.41
2018-12-25T03:23:38.054Z,98815.17
2018-12-25T03:24:09.639Z,98823.27
2018-12-25T03:24:41.249Z,98820.32
2018-12-25T03:25:12.862Z,98823.73
2018-12-25T03:25:44.458Z,98819.47
2018-12-25T03:26:16.052Z,98819.50
2018-12-25T03:26:47.648Z,98821.63
2018-12-25T03:27:19.260Z,98820.35
2018-12-25T03:27:50.874Z,98812.69
2018-12-25T03:28:22.461Z,98816.12
2018-12-25T03:28:54.048Z,98817.47
2018-12-25T03:29:25.647Z,98811.50
2018-12-25T03:29:57.235Z,98820.48
2018-12-25T03:30:28.842Z,98819.20
2018-12-25T03:31:00.451Z,98820.09
2018-12-25T03:31:32.060Z,98815.44
2018-12-25T03:32:03.675Z,98820.55
2018-12-25T03:32:35.313Z,98815.47
2018-12-25T03:33:06.963Z,98818.88
2018-12-25T03:33:38.562Z,98813.80
2018-12-25T03:34:10.167Z,98822.34
2018-12-25T03:34:41.763Z,98817.66
2018-12-25T03:35:13.362Z,98816.80
2018-12-25T03:35:44.969Z,98820.24
2018-12-25T03:36:16.567Z,98820.24
2018-12-25T03:36:48.162Z,98820.70
2018-12-25T03:37:19.768Z,98823.68
2018-12-25T03:37:51.407Z,98822.86
2018-12-25T03:38:23.002Z,98822.00
2018-12-25T03:38:54.622Z,98818.59
2018-12-25T03:39:26.222Z,98824.56
2018-12-25T03:39:57.809Z,98819.84
2018-12-25T03:40:29.401Z,98826.23
2018-12-25T03:41:00.998Z,98821.55
2018-12-25T03:41:32.588Z,98822.83
2018-12-25T03:42:04.188Z,98821.55
2018-12-25T03:42:35.814Z,98822.41
2018-12-25T03:43:07.406Z,98818.56
2018-12-25T03:43:39.001Z,98813.88
2018-12-25T03:44:10.607Z,98813.91
2018-12-25T03:44:42.241Z,98816.05
2018-12-25T03:45:13.827Z,98813.91
2018-12-25T03:45:45.443Z,98816.89
2018-12-25T03:46:17.039Z,98820.73
2018-12-25T03:46:48.633Z,98815.61
2018-12-25T03:47:20.236Z,98820.33
2018-12-25T03:47:51.877Z,98812.66
2018-12-25T03:48:23.483Z,98813.09
2018-12-25T03:48:55.086Z,98820.76
2018-12-25T03:49:26.666Z,98817.34
2018-12-25T03:49:58.364Z,98813.52
2018-12-25T03:50:29.964Z,98814.80
2018-12-25T03:51:01.544Z,98815.65
2018-12-25T03:51:33.149Z,98811.36
2018-12-25T03:52:04.750Z,98816.05
2018-12-25T03:52:36.362Z,98810.51
2018-12-25T03:53:07.962Z,98808.38
2018-12-25T03:53:39.572Z,98805.39
2018-12-25T03:54:11.175Z,98802.41
2018-12-25T03:54:42.786Z,98807.03
2018-12-25T03:55:14.409Z,98805.73
2018-12-25T03:55:46.011Z,98802.69
2018-12-25T03:56:17.610Z,98804.39
2018-12-25T03:56:49.206Z,98800.95
2018-12-25T03:57:20.820Z,98800.48
2018-12-25T03:57:52.456Z,98802.59
2018-12-25T03:58:24.068Z,98795.31
2018-12-25T03:58:55.671Z,98792.33
2018-12-25T03:59:27.264Z,98799.08
2018-12-25T03:59:58.859Z,98800.78
2018-12-25T04:00:30.445Z,98800.78
2018-12-25T04:01:02.028Z,98795.63
2018-12-25T04:01:33.623Z,98797.73
2018-12-25T04:02:05.228Z,98804.13
2018-12-25T04:02:36.821Z,98796.03
2018-12-25T04:03:08.456Z,98804.91
2018-12-25T04:03:40.065Z,98803.17
2018-12-25T04:04:11.677Z,98804.41
2018-12-25T04:04:43.274Z,98803.56
2018-12-25T04:05:14.884Z,98798.02
2018-12-25T04:05:46.486Z,98801.86
2018-12-25T04:06:18.072Z,98805.69
2018-12-25T04:06:49.670Z,98800.61
2018-12-25T04:07:21.276Z,98802.32
2018-12-25T04:07:52.896Z,98808.75
2018-12-25T04:08:24.509Z,98803.20
2018-12-25T04:08:56.142Z,98801.08
2018-12-25T04:09:27.754Z,98802.81
2018-12-25T04:09:59.463Z,98799.83
2018-12-25T04:10:31.076Z,98799.83
2018-12-25T04:11:02.678Z,98799.83
2018-12-25T04:11:34.299Z,98795.96
2018-12-25T04:12:05.893Z,98798.13
2018-12-25T04:12:37.491Z,98801.92
2018-12-25T04:13:09.230Z,98798.09
2018-12-25T04:13:40.780Z,98799.37
2018-12-25T04:14:12.365Z,98793.83
2018-12-25T04:14:43.971Z,98796.81
2018-12-25T04:15:15.573Z,98801.92
2018-12-25T04:15:47.190Z,98794.68
2018-12-25T04:16:18.799Z,98798.48
2018-12-25T04:16:50.398Z,98796.78
2018-12-25T04:17:22.012Z,98794.65
2018-12-25T04:17:53.625Z,98790.38
2018-12-25T04:18:25.225Z,98787.40
2018-12-25T04:18:56.821Z,98798.45
2018-12-25T04:19:28.424Z,98795.92
2018-12-25T04:20:00.008Z,98791.23
2018-12-25T04:20:31.610Z,98791.66
2018-12-25T04:21:03.213Z,98800.61
2018-12-25T04:21:34.806Z,98794.22
2018-12-25T04:22:06.403Z,98795.47
2018-12-25T04:22:38.021Z,98797.63
2018-12-25T04:23:09.649Z,98784.09
2018-12-25T04:23:41.246Z,98794.65
2018-12-25T04:24:12.855Z,98801.47
2018-12-25T04:24:44.449Z,98798.05
2018-12-25T04:25:16.042Z,98795.53
2018-12-25T04:25:47.638Z,98800.61
2018-12-25T04:26:19.239Z,98795.92
2018-12-25T04:26:50.834Z,98797.63
2018-12-25T04:27:22.436Z,98799.33
2018-12-25T04:27:54.068Z,98804.87
2018-12-25T04:28:25.670Z,98807.43
2018-12-25T04:28:57.262Z,98805.30
2018-12-25T04:29:28.877Z,98806.16
2018-12-25T04:30:00.481Z,98800.61
2018-12-25T04:30:32.096Z,98809.14
2018-12-25T04:31:03.722Z,98809.56
2018-12-25T04:31:35.325Z,98803.59
2018-12-25T04:32:06.909Z,98805.30
2018-12-25T04:32:38.496Z,98804.02
2018-12-25T04:33:10.129Z,98803.59
2018-12-25T04:33:41.725Z,98805.73
2018-12-25T04:34:13.318Z,98811.70
2018-12-25T04:34:44.910Z,98805.73
2018-12-25T04:35:16.510Z,98802.78
2018-12-25T04:35:48.115Z,98803.20
2018-12-25T04:36:19.707Z,98794.25
2018-12-25T04:36:51.318Z,98802.81
2018-12-25T04:37:22.914Z,98808.32
2018-12-25T04:37:54.504Z,98809.60
2018-12-25T04:38:26.093Z,98803.23
2018-12-25T04:38:58.705Z,98805.37
2018-12-25T04:39:30.299Z,98805.37
2018-12-25T04:40:01.895Z,98806.26
2018-12-25T04:40:33.512Z,98815.20
2018-12-25T04:41:05.106Z,98808.42
2018-12-25T04:41:36.706Z,98802.88
2018-12-25T04:42:08.301Z,98811.44
2018-12-25T04:42:39.911Z,98806.36
2018-12-25T04:43:11.557Z,98812.36
2018-12-25T04:43:43.149Z,98808.09
2018-12-25T04:44:14.741Z,98814.48
2018-12-25T04:44:46.340Z,98817.89
2018-12-25T04:45:17.934Z,98808.52
2018-12-25T04:45:49.541Z,98817.01
2018-12-25T04:46:21.142Z,98822.95
2018-12-25T04:46:52.747Z,98816.58
2018-12-25T04:47:24.341Z,98820.81
2018-12-25T04:47:55.924Z,98823.37
2018-12-25T04:48:27.561Z,98817.86
2018-12-25T04:48:59.158Z,98822.58
2018-12-25T04:49:30.766Z,98820.48
2018-12-25T04:50:02.447Z,98820.91
2018-12-25T04:50:34.046Z,98825.59
2018-12-25T04:51:05.651Z,98829.00
2018-12-25T04:51:37.245Z,98818.78
2018-12-25T04:52:08.849Z,98828.19
2018-12-25T04:52:40.447Z,98830.77
2018-12-25T04:53:12.068Z,98817.59
2018-12-25T04:53:43.700Z,98818.88
2018-12-25T04:54:15.301Z,98814.64
2018-12-25T04:54:46.894Z,98820.64
2018-12-25T04:55:18.478Z,98818.94
2018-12-25T04:55:50.077Z,98826.20
2018-12-25T04:56:21.683Z,98821.98
2018-12-25T04:56:53.277Z,98819.84
2018-12-25T04:57:24.861Z,98820.73
2018-12-25T04:57:56.444Z,98823.31
2018-12-25T04:58:28.055Z,98823.73
2018-12-25T04:58:59.654Z,98821.64
2018-12-25T04:59:31.249Z,98828.03
2018-12-25T05:00:02.855Z,98827.63
2018-12-25T05:00:34.440Z,98789.44
2018-12-25T05:01:06.047Z,98820.39
2018-12-25T05:01:37.908Z,98821.70
2018-12-25T05:02:09.833Z,98825.53
2018-12-25T05:02:41.622Z,98820.84
2018-12-25T05:03:13.584Z,98820.88
2018-12-25T05:03:45.285Z,98823.42
2018-12-25T05:04:17.236Z,98823.03
2018-12-25T05:04:49.271Z,98818.31
2018-12-25T05:05:21.711Z,98819.17
2018-12-25T05:05:53.289Z,98825.55
2018-12-25T05:06:24.872Z,98821.33
2018-12-25T05:06:56.473Z,98822.17
2018-12-25T05:07:28.084Z,98823.06
2018-12-25T05:07:59.683Z,98819.22
2018-12-25T05:08:31.296Z,98819.68
2018-12-25T05:09:02.933Z,98825.64
2018-12-25T05:09:34.534Z,98819.64
2018-12-25T05:10:06.143Z,98820.95
2018-12-25T05:10:37.738Z,98816.69
2018-12-25T05:11:09.338Z,98819.27
2018-12-25T05:11:40.945Z,98816.30
2018-12-25T05:12:12.528Z,98823.95
2018-12-25T05:12:44.121Z,98826.08
2018-12-25T05:13:15.737Z,98826.94
2018-12-25T05:13:47.365Z,98822.70
2018-12-25T05:14:18.960Z,98824.41
2018-12-25T05:14:50.619Z,98824.41
2018-12-25T05:15:22.220Z,98818.45
2018-12-25T05:15:53.817Z,98824.84
2018-12-25T05:16:25.405Z,98817.17
2018-12-25T05:16:56.998Z,98815.89
2018-12-25T05:17:28.580Z,98821.83
2018-12-25T05:18:00.178Z,98821.83
2018-12-25T05:18:31.792Z,98827.81
2018-12-25T05:19:03.437Z,98832.07
2018-12-25T05:19:35.052Z,98826.11
2018-12-25T05:20:06.649Z,98836.33
2018-12-25T05:20:38.282Z,98832.50
2018-12-25T05:21:09.880Z,98831.65
2018-12-25T05:21:41.487Z,98825.66
2018-12-25T05:22:13.097Z,98823.95
2018-12-25T05:22:44.708Z,98827.78
2018-12-25T05:23:16.302Z,98826.48
2018-12-25T05:23:47.922Z,98833.72
2018-12-25T05:24:19.518Z,98825.63
2018-12-25T05:24:51.109Z,98829.90
2018-12-25T05:25:22.703Z,98826.47
2018-12-25T05:25:54.299Z,98827.72
2018-12-25T05:26:25.903Z,98831.48
2018-12-25T05:26:57.508Z,98829.36
2018-12-25T05:27:29.110Z,98824.22
2018-12-25T05:28:00.705Z,98834.45
2018-12-25T05:28:32.288Z,98802.22
2018-12-25T05:29:03.924Z,98831.83
2018-12-25T05:29:35.537Z,98824.59
2018-12-25T05:30:07.134Z,98825.41
2018-12-25T05:30:38.743Z,98831.80
2018-12-25T05:31:10.355Z,98821.98
2018-12-25T05:31:41.954Z,98824.89
2018-12-25T05:32:13.546Z,98830.38
2018-12-25T05:32:45.151Z,98806.58
2018-12-25T05:33:16.760Z,98825.17
2018-12-25T05:33:48.357Z,98830.25
2018-12-25T05:34:19.974Z,98815.27
2018-12-25T05:34:51.556Z,98802.55
2018-12-25T05:35:23.160Z,98813.11
2018-12-25T05:35:54.772Z,98816.06
2018-12-25T05:36:26.367Z,98822.41
2018-12-25T05:36:57.976Z,98821.53
2018-12-25T05:37:29.574Z,98813.83
2018-12-25T05:38:01.183Z,98821.47
2018-12-25T05:38:32.788Z,98824.84
2018-12-25T05:39:04.415Z,98826.09
2018-12-25T05:39:36.027Z,98819.66
2018-12-25T05:40:07.631Z,98826.05
2018-12-25T05:40:39.229Z,98817.06
2018-12-25T05:41:10.811Z,98812.37
2018-12-25T05:41:42.391Z,98813.65
2018-12-25T05:42:13.989Z,98823.41
2018-12-25T05:42:45.580Z,98812.76
2018-12-25T05:43:17.183Z,98814.04
2018-12-25T05:43:48.792Z,98815.78
2018-12-25T05:44:20.436Z,98813.65
2018-12-25T05:44:52.034Z,98818.34
2018-12-25T05:45:23.644Z,98815.78
2018-12-25T05:45:55.250Z,98823.03
2018-12-25T05:46:26.856Z,98810.70
2018-12-25T05:46:58.460Z,98815.81
2018-12-25T05:47:30.063Z,98808.14
2018-12-25T05:48:01.658Z,98814.58
2018-12-25T05:48:33.250Z,98821.39
2018-12-25T05:49:04.894Z,98816.67
2018-12-25T05:49:36.503Z,98811.55
2018-12-25T05:50:08.101Z,98816.28
2018-12-25T05:50:46.610Z,98821.82
2018-12-25T05:51:11.386Z,98823.95
2018-12-25T05:51:42.986Z,98823.95
2018-12-25T05:52:14.583Z,98824.34
2018-12-25T05:52:46.182Z,98829.06
2018-12-25T05:53:17.764Z,98820.51
2018-12-25T05:53:49.357Z,98820.11
2018-12-25T05:54:20.977Z,98825.66
2018-12-25T05:54:52.583Z,98820.11
2018-12-25T05:55:24.162Z,98825.23
2018-12-25T05:55:55.768Z,98823.95
2018-12-25T05:56:27.375Z,98833.30
2018-12-25T05:56:58.979Z,98823.91
2018-12-25T05:57:30.579Z,98826.05
2018-12-25T05:58:02.173Z,98833.72
2018-12-25T05:58:33.786Z,98832.05
2018-12-25T05:59:05.402Z,98834.19
2018-12-25T05:59:37.026Z,98839.30
2018-12-25T06:00:08.632Z,98833.79
2018-12-25T06:00:40.243Z,98838.91
2018-12-25T06:01:11.837Z,98830.38
2018-12-25T06:01:43.444Z,98838.48
2018-12-25T06:02:15.051Z,98838.94
2018-12-25T06:02:46.646Z,98843.59
2018-12-25T06:03:18.238Z,98843.20
2018-12-25T06:03:49.848Z,98839.36
2018-12-25T06:04:21.488Z,98836.81
2018-12-25T06:04:53.104Z,98837.23
2018-12-25T06:05:24.702Z,98836.81
2018-12-25T06:05:56.297Z,98830.45
2018-12-25T06:06:27.889Z,98831.30
2018-12-25T06:06:59.491Z,98827.92
2018-12-25T06:07:31.103Z,98839.00
2018-12-25T06:08:02.711Z,98831.77
2018-12-25T06:08:34.332Z,98826.64
2018-12-25T06:09:05.955Z,98824.98
2018-12-25T06:09:37.592Z,98832.22
2018-12-25T06:10:09.190Z,98833.07
2018-12-25T06:10:40.785Z,98832.25
2018-12-25T06:11:12.387Z,98820.35